Time;durP1;ratioP1;P1;durP2;ratioP2;P2;SDS_P1;SDS_P2;PMS_P1;PMS_P2;Temp;Humidity;BMP_temperature;BMP_pressure;BME280_temperature;BME280_humidity;BME280_pressure;Samples;Min_cycle;Max_cycle;Signal;HPM_P1;HPM_P2
2022/05/13 00:03:01;;;;;;;7.55;3.90;;;;;;;;;;10346157;28;20093;-42
2022/05/13 00:08:02;;;;;;;8.48;3.97;;;;;;;;;;10354637;28;20035;-42
2022/05/13 00:13:04;;;;;;;7.13;3.78;;;;;;;;;;10349252;28;20046;-42
2022/05/13 00:18:05;;;;;;;8.80;3.58;;;;;;;;;;10354175;28;20105;-42
2022/05/13 00:23:06;;;;;;;7.47;3.45;;;;;;;;;;10343708;28;20034;-42
2022/05/13 00:28:09;;;;;;;6.32;3.50;;;;;;;;;;10344802;28;20026;-42
2022/05/13 00:33:10;;;;;;;8.27;4.10;;;;;;;;;;10347908;28;20092;-42
2022/05/13 00:38:10;;;;;;;7.88;4.10;;;;;;;;;;10346938;28;20093;-41
2022/05/13 00:43:13;;;;;;;5.75;3.50;;;;;;;;;;10351062;28;20017;-42
2022/05/13 00:48:14;;;;;;;9.95;4.35;;;;;;;;;;10344833;28;20435;-42
2022/05/13 00:53:14;;;;;;;11.82;3.85;;;;;;;;;;10331581;28;20029;-42
2022/05/13 00:58:18;;;;;;;12.00;4.10;;;;;;;;;;10354337;28;20045;-42
2022/05/13 01:03:20;;;;;;;6.15;3.70;;;;;;;;;;10346458;28;20033;-42
2022/05/13 01:08:21;;;;;;;9.90;4.57;;;;;;;;;;10348355;28;20037;-42
2022/05/13 01:13:23;;;;;;;9.57;3.85;;;;;;;;;;10337236;28;20036;-41
2022/05/13 01:18:31;;;;;;;10.40;3.78;;;;;;;;;;10328151;28;20136;-41
2022/05/13 01:23:37;;;;;;;5.80;3.30;;;;;;;;;;10348012;28;20038;-42
2022/05/13 01:28:50;;;;;;;5.03;2.88;;;;;;;;;;10347102;28;20053;-41
2022/05/13 01:33:52;;;;;;;10.35;3.92;;;;;;;;;;10343068;28;20062;-41
2022/05/13 01:38:53;;;;;;;9.73;3.78;;;;;;;;;;10346758;28;20026;-42
2022/05/13 01:43:55;;;;;;;9.30;3.53;;;;;;;;;;10362949;28;20125;-42
2022/05/13 01:48:56;;;;;;;8.63;3.40;;;;;;;;;;10353641;28;20129;-42
2022/05/13 01:53:57;;;;;;;5.93;3.28;;;;;;;;;;10347637;28;20113;-41
2022/05/13 01:58:57;;;;;;;4.45;3.13;;;;;;;;;;10351353;28;20034;-41
2022/05/13 02:03:58;;;;;;;8.07;3.03;;;;;;;;;;10356800;28;20030;-41
2022/05/13 02:08:59;;;;;;;9.73;3.15;;;;;;;;;;10353708;28;20037;-42
2022/05/13 02:13:59;;;;;;;4.95;3.20;;;;;;;;;;10359185;28;20165;-42
2022/05/13 02:19:00;;;;;;;9.82;2.95;;;;;;;;;;10355812;28;20552;-42
2022/05/13 02:24:01;;;;;;;8.30;3.20;;;;;;;;;;10347044;28;20034;-41
2022/05/13 02:29:02;;;;;;;9.90;3.70;;;;;;;;;;10356877;28;20042;-41
2022/05/13 02:34:03;;;;;;;6.55;3.20;;;;;;;;;;10358339;28;20203;-42
2022/05/13 02:39:03;;;;;;;7.80;3.30;;;;;;;;;;10339569;28;20034;-41
2022/05/13 02:44:05;;;;;;;4.63;2.80;;;;;;;;;;10343525;28;20030;-42
2022/05/13 02:49:05;;;;;;;5.65;3.33;;;;;;;;;;10354197;28;20454;-42
2022/05/13 02:54:07;;;;;;;4.00;3.00;;;;;;;;;;10355645;28;20084;-42
2022/05/13 02:59:08;;;;;;;3.92;3.05;;;;;;;;;;10343458;28;20034;-41
2022/05/13 03:04:08;;;;;;;7.65;3.47;;;;;;;;;;10360684;28;20027;-42
2022/05/13 03:09:09;;;;;;;4.53;2.90;;;;;;;;;;10354647;28;20034;-41
2022/05/13 03:14:10;;;;;;;5.03;3.05;;;;;;;;;;10352861;28;20042;-41
2022/05/13 03:19:11;;;;;;;4.55;2.95;;;;;;;;;;10346942;28;20122;-41
2022/05/13 03:24:12;;;;;;;8.98;3.28;;;;;;;;;;10358102;28;20481;-41
2022/05/13 03:29:12;;;;;;;6.53;3.50;;;;;;;;;;10346857;28;20046;-40
2022/05/13 03:34:13;;;;;;;4.80;3.17;;;;;;;;;;10352144;28;20084;-41
2022/05/13 03:39:14;;;;;;;4.75;3.08;;;;;;;;;;10362553;28;20038;-41
2022/05/13 03:44:15;;;;;;;5.63;3.42;;;;;;;;;;10348586;28;20061;-41
2022/05/13 03:49:16;;;;;;;7.35;3.10;;;;;;;;;;10334885;28;20036;-41
2022/05/13 03:54:16;;;;;;;4.32;2.90;;;;;;;;;;10354274;28;20524;-41
2022/05/13 03:59:17;;;;;;;4.25;3.03;;;;;;;;;;10347841;28;20045;-40
2022/05/13 04:04:21;;;;;;;4.40;2.88;;;;;;;;;;10353572;28;20048;-40
2022/05/13 04:09:21;;;;;;;4.05;3.03;;;;;;;;;;10345465;28;20042;-41
2022/05/13 04:19:43;;;;;;;5.10;2.95;;;;;;;;;;10333411;28;20462;-40
2022/05/13 04:24:43;;;;;;;3.92;2.75;;;;;;;;;;10350551;28;20033;-40
2022/05/13 04:29:44;;;;;;;4.35;3.28;;;;;;;;;;10347463;28;20030;-40
2022/05/13 04:34:45;;;;;;;9.90;2.90;;;;;;;;;;10346029;28;20038;-40
2022/05/13 04:39:52;;;;;;;4.28;3.03;;;;;;;;;;10348459;28;20034;-40
2022/05/13 04:44:53;;;;;;;6.87;2.87;;;;;;;;;;10350655;28;20105;-40
2022/05/13 04:49:54;;;;;;;3.08;2.70;;;;;;;;;;10349745;28;20084;-40
2022/05/13 04:54:54;;;;;;;4.10;3.05;;;;;;;;;;10347272;28;20029;-40
2022/05/13 04:59:55;;;;;;;3.85;2.78;;;;;;;;;;10349486;28;20029;-40
2022/05/13 05:04:55;;;;;;;3.78;3.00;;;;;;;;;;10341479;28;20034;-40
2022/05/13 05:09:56;;;;;;;3.28;2.63;;;;;;;;;;10345675;28;20030;-40
2022/05/13 05:14:58;;;;;;;4.47;2.90;;;;;;;;;;10351159;28;20030;-41
2022/05/13 05:19:58;;;;;;;3.22;2.88;;;;;;;;;;10344633;28;20547;-40
2022/05/13 05:24:59;;;;;;;5.65;2.95;;;;;;;;;;10353276;28;20088;-42
2022/05/13 05:29:59;;;;;;;7.30;3.35;;;;;;;;;;10348729;28;20037;-40
2022/05/13 05:35:00;;;;;;;4.88;3.08;;;;;;;;;;10350730;28;20096;-41
2022/05/13 05:40:02;;;;;;;7.40;2.90;;;;;;;;;;10350197;28;20034;-41
2022/05/13 05:45:04;;;;;;;4.13;2.70;;;;;;;;;;10343462;28;20030;-41
2022/05/13 05:50:08;;;;;;;2.88;2.55;;;;;;;;;;10347886;28;20029;-40
2022/05/13 06:00:32;;;;;;;7.80;4.30;;;;;;;;;;10359884;28;20662;-41
2022/05/13 06:05:33;;;;;;;14.15;3.70;;;;;;;;;;10351992;28;20293;-40
2022/05/13 06:10:35;;;;;;;6.88;4.13;;;;;;;;;;10357269;28;20058;-41
2022/05/13 06:15:36;;;;;;;7.18;3.78;;;;;;;;;;10332520;28;20053;-41
2022/05/13 06:20:37;;;;;;;8.05;5.18;;;;;;;;;;10331149;28;20030;-41
2022/05/13 06:25:39;;;;;;;11.30;5.05;;;;;;;;;;10333170;28;20041;-40
2022/05/13 06:30:40;;;;;;;11.60;4.10;;;;;;;;;;10351775;28;20489;-40
2022/05/13 06:35:41;;;;;;;17.60;4.53;;;;;;;;;;10354509;28;20030;-40
2022/05/13 06:40:42;;;;;;;12.50;4.95;;;;;;;;;;10360993;28;20062;-41
2022/05/13 06:45:43;;;;;;;8.40;4.35;;;;;;;;;;10357121;28;20090;-40
2022/05/13 06:50:44;;;;;;;6.47;3.97;;;;;;;;;;10349180;28;20057;-40
2022/05/13 06:55:45;;;;;;;11.38;4.30;;;;;;;;;;10338688;28;20124;-40
2022/05/13 07:00:45;;;;;;;7.57;4.55;;;;;;;;;;10349807;28;20029;-40
2022/05/13 07:05:46;;;;;;;12.35;5.65;;;;;;;;;;10350991;28;20092;-40
2022/05/13 07:10:47;;;;;;;9.02;4.63;;;;;;;;;;10354096;28;20371;-41
2022/05/13 07:15:48;;;;;;;12.55;4.55;;;;;;;;;;10347930;28;20041;-40
2022/05/13 07:20:49;;;;;;;8.02;4.22;;;;;;;;;;10362402;28;20033;-40
2022/05/13 07:25:51;;;;;;;13.02;4.63;;;;;;;;;;10343627;28;20387;-40
2022/05/13 07:30:53;;;;;;;6.95;4.28;;;;;;;;;;10353387;28;20030;-40
2022/05/13 07:35:53;;;;;;;7.22;4.05;;;;;;;;;;10344624;28;20042;-40
2022/05/13 07:46:14;;;;;;;6.63;4.25;;;;;;;;;;10350321;28;20475;-41
2022/05/13 07:51:14;;;;;;;9.65;4.88;;;;;;;;;;10348325;28;20120;-41
2022/05/13 07:56:15;;;;;;;9.95;4.45;;;;;;;;;;10354166;28;20041;-40
2022/05/13 08:01:17;;;;;;;7.65;4.35;;;;;;;;;;10356377;28;20037;-40
2022/05/13 08:06:18;;;;;;;8.35;4.13;;;;;;;;;;10355798;28;20113;-39
2022/05/13 08:11:19;;;;;;;17.88;4.97;;;;;;;;;;10356690;28;20470;-40
2022/05/13 08:16:25;;;;;;;13.18;3.88;;;;;;;;;;10347668;28;20054;-40
2022/05/13 08:21:26;;;;;;;8.93;4.13;;;;;;;;;;10356704;28;20033;-40
2022/05/13 08:26:27;;;;;;;11.77;4.53;;;;;;;;;;10355425;28;20045;-40
2022/05/13 08:31:27;;;;;;;5.65;3.97;;;;;;;;;;10341206;28;20034;-39
2022/05/13 08:36:28;;;;;;;7.40;3.75;;;;;;;;;;10334392;28;20041;-39
2022/05/13 08:42:06;;;;;;;13.27;4.43;;;;;;;;;;10341136;28;20026;-40
2022/05/13 08:47:39;;;;;;;14.77;4.30;;;;;;;;;;10335799;28;20054;-41
2022/05/13 08:53:08;;;;;;;10.57;4.22;;;;;;;;;;10347661;28;20073;-40
2022/05/13 08:58:27;;;;;;;10.05;4.28;;;;;;;;;;10340600;28;20113;-41
2022/05/13 09:03:30;;;;;;;9.65;4.32;;;;;;;;;;10344639;28;20033;-41
2022/05/13 09:08:34;;;;;;;11.32;4.28;;;;;;;;;;10355546;28;20034;-40
2022/05/13 09:13:49;;;;;;;8.77;4.40;;;;;;;;;;10333920;28;20026;-41
2022/05/13 09:19:01;;;;;;;8.57;4.60;;;;;;;;;;10333104;28;20077;-41
2022/05/13 09:24:02;;;;;;;10.40;4.50;;;;;;;;;;10329989;28;20041;-41
2022/05/13 09:29:18;;;;;;;8.55;4.63;;;;;;;;;;10350133;28;20034;-41
2022/05/13 09:34:25;;;;;;;4.47;3.67;;;;;;;;;;10348484;28;20034;-41
2022/05/13 09:39:25;;;;;;;10.30;4.40;;;;;;;;;;10349179;28;20034;-40
2022/05/13 09:44:26;;;;;;;10.52;4.47;;;;;;;;;;10346787;28;20429;-41
2022/05/13 09:49:36;;;;;;;8.90;4.85;;;;;;;;;;10341816;28;20060;-41
2022/05/13 09:54:40;;;;;;;9.35;5.13;;;;;;;;;;10339277;28;20048;-41
2022/05/13 09:59:59;;;;;;;6.97;3.97;;;;;;;;;;10334752;28;20041;-41
2022/05/13 10:05:27;;;;;;;6.55;4.20;;;;;;;;;;10347246;28;20038;-41
2022/05/13 10:15:54;;;;;;;9.73;4.35;;;;;;;;;;10351225;28;20049;-41
2022/05/13 10:21:10;;;;;;;5.82;4.15;;;;;;;;;;10337150;28;20533;-41
2022/05/13 10:26:17;;;;;;;6.63;4.20;;;;;;;;;;10355121;28;20037;-41
2022/05/13 10:31:23;;;;;;;8.95;4.50;;;;;;;;;;10345904;28;20069;-41
2022/05/13 10:36:34;;;;;;;9.48;4.43;;;;;;;;;;10364365;28;20058;-41
2022/05/13 10:41:55;;;;;;;10.30;4.20;;;;;;;;;;10335082;28;20046;-41
2022/05/13 10:47:04;;;;;;;9.75;5.28;;;;;;;;;;10333901;28;20030;-41
2022/05/13 10:52:41;;;;;;;7.32;4.60;;;;;;;;;;10341008;28;20042;-41
2022/05/13 10:58:28;;;;;;;8.60;4.30;;;;;;;;;;10325614;28;20034;-41
2022/05/13 11:03:57;;;;;;;6.90;4.47;;;;;;;;;;10343650;28;20037;-41
2022/05/13 11:09:10;;;;;;;7.85;4.85;;;;;;;;;;10352810;28;20030;-41
2022/05/13 11:14:44;;;;;;;6.32;3.70;;;;;;;;;;10344903;28;20037;-41
2022/05/13 11:20:13;;;;;;;7.80;4.88;;;;;;;;;;10363895;28;20045;-41
2022/05/13 11:25:55;;;;;;;6.63;4.97;;;;;;;;;;10352347;28;20045;-41
2022/05/13 11:31:23;;;;;;;9.63;4.78;;;;;;;;;;10353844;28;20596;-41
2022/05/13 11:36:49;;;;;;;6.20;4.13;;;;;;;;;;10355751;28;20038;-41
2022/05/13 11:41:55;;;;;;;7.40;4.55;;;;;;;;;;10361876;28;20092;-41
2022/05/13 11:47:15;;;;;;;9.80;5.03;;;;;;;;;;10332079;28;20040;-41
2022/05/13 11:52:15;;;;;;;10.35;4.88;;;;;;;;;;10336258;28;20030;-41
2022/05/13 11:57:25;;;;;;;7.13;4.60;;;;;;;;;;10362485;28;20059;-41
2022/05/13 12:02:51;;;;;;;6.80;4.45;;;;;;;;;;10349892;28;20478;-41
2022/05/13 12:08:01;;;;;;;10.95;4.70;;;;;;;;;;10353640;28;20026;-41
2022/05/13 12:13:22;;;;;;;6.60;4.50;;;;;;;;;;10356367;28;20058;-41
2022/05/13 12:18:56;;;;;;;6.35;4.63;;;;;;;;;;10352101;28;20092;-41
2022/05/13 12:24:14;;;;;;;10.77;4.90;;;;;;;;;;10362377;28;20109;-41
2022/05/13 12:29:21;;;;;;;8.65;5.32;;;;;;;;;;10353467;28;20033;-41
2022/05/13 12:39:59;;;;;;;8.98;4.80;;;;;;;;;;10345894;28;20481;-41
2022/05/13 12:45:00;;;;;;;7.43;5.35;;;;;;;;;;10354631;28;20045;-41
2022/05/13 12:50:38;;;;;;;10.35;5.50;;;;;;;;;;10343947;28;20389;-41
2022/05/13 12:55:40;;;;;;;13.67;5.53;;;;;;;;;;10338825;28;20021;-41
2022/05/13 13:00:45;;;;;;;11.43;5.38;;;;;;;;;;10335721;28;20452;-41
2022/05/13 13:06:06;;;;;;;10.25;4.65;;;;;;;;;;10323129;28;20032;-41
2022/05/13 13:11:34;;;;;;;11.35;5.90;;;;;;;;;;10330634;28;20493;-40
2022/05/13 13:17:02;;;;;;;10.15;4.68;;;;;;;;;;10336429;28;20050;-41
2022/05/13 13:22:14;;;;;;;13.20;5.53;;;;;;;;;;10332853;28;20052;-40
2022/05/13 13:27:19;;;;;;;12.65;6.35;;;;;;;;;;10356921;28;20053;-41
2022/05/13 13:32:22;;;;;;;11.73;5.88;;;;;;;;;;10340639;28;20037;-40
2022/05/13 13:37:34;;;;;;;10.60;7.05;;;;;;;;;;10360472;28;20044;-41
2022/05/13 13:42:35;;;;;;;11.43;6.68;;;;;;;;;;10345044;28;20034;-40
2022/05/13 13:47:44;;;;;;;10.93;6.22;;;;;;;;;;10359816;28;20445;-41
2022/05/13 13:52:44;;;;;;;11.50;6.53;;;;;;;;;;10362623;28;20214;-40
2022/05/13 13:58:17;;;;;;;15.48;7.32;;;;;;;;;;10330607;28;20453;-41
2022/05/13 14:03:25;;;;;;;13.60;7.10;;;;;;;;;;10350675;28;20085;-41
2022/05/13 14:08:30;;;;;;;16.60;6.40;;;;;;;;;;10350444;28;20045;-41
2022/05/13 14:13:46;;;;;;;10.27;6.50;;;;;;;;;;10343681;28;20062;-41
2022/05/13 14:18:52;;;;;;;13.00;6.60;;;;;;;;;;10350426;28;20498;-41
2022/05/13 14:24:05;;;;;;;12.68;6.35;;;;;;;;;;10334442;28;20041;-41
2022/05/13 14:29:12;;;;;;;9.68;6.45;;;;;;;;;;10352324;28;20171;-41
2022/05/13 14:34:14;;;;;;;11.30;6.28;;;;;;;;;;10349128;28;20524;-41
2022/05/13 14:44:53;;;;;;;9.13;6.07;;;;;;;;;;10339585;28;20042;-41
2022/05/13 14:50:10;;;;;;;9.57;5.68;;;;;;;;;;10360456;28;20103;-41
2022/05/13 14:55:28;;;;;;;12.70;6.57;;;;;;;;;;10355913;28;20026;-41
2022/05/13 15:00:30;;;;;;;12.40;6.95;;;;;;;;;;10362415;28;20026;-41
2022/05/13 15:05:44;;;;;;;11.00;6.38;;;;;;;;;;10362046;28;20126;-41
2022/05/13 15:10:45;;;;;;;18.38;6.80;;;;;;;;;;10355983;28;20058;-41
2022/05/13 15:15:46;;;;;;;11.70;6.43;;;;;;;;;;10345164;28;20502;-41
2022/05/13 15:20:46;;;;;;;9.70;6.60;;;;;;;;;;10362389;23;20054;-46
2022/05/13 15:25:48;;;;;;;6.82;5.82;;;;;;;;;;10321391;28;20153;-47
2022/05/13 15:30:51;;;;;;;10.10;5.80;;;;;;;;;;10320755;28;20410;-47
2022/05/13 15:35:53;;;;;;;14.55;6.45;;;;;;;;;;10314866;28;20031;-46
2022/05/13 15:40:53;;;;;;;8.75;6.03;;;;;;;;;;10298402;28;20054;-47
2022/05/13 15:45:54;;;;;;;11.63;5.93;;;;;;;;;;10309637;28;20106;-47
2022/05/13 15:56:28;;;;;;;11.98;6.50;;;;;;;;;;10310826;28;20042;-47
2022/05/13 16:01:29;;;;;;;8.80;6.18;;;;;;;;;;10291085;28;20049;-47
2022/05/13 16:06:29;;;;;;;7.88;5.97;;;;;;;;;;10286059;28;20143;-46
2022/05/13 16:11:35;;;;;;;12.70;6.53;;;;;;;;;;10299637;28;20485;-46
2022/05/13 16:16:42;;;;;;;10.52;6.05;;;;;;;;;;10292435;28;20038;-46
2022/05/13 16:21:44;;;;;;;7.35;6.03;;;;;;;;;;10302580;28;20058;-46
2022/05/13 16:26:44;;;;;;;13.68;6.78;;;;;;;;;;10284488;28;20035;-46
2022/05/13 16:31:45;;;;;;;24.83;8.65;;;;;;;;;;10312332;28;20026;-46
2022/05/13 16:42:05;;;;;;;25.20;9.27;;;;;;;;;;10315968;28;20036;-46
2022/05/13 16:47:06;;;;;;;32.15;9.38;;;;;;;;;;10312377;28;20026;-46
2022/05/13 16:52:09;;;;;;;28.35;9.88;;;;;;;;;;10313729;28;20407;-46
2022/05/13 16:57:09;;;;;;;19.42;8.73;;;;;;;;;;10305591;28;20070;-47
2022/05/13 17:02:10;;;;;;;21.60;8.43;;;;;;;;;;10309164;28;20034;-46
2022/05/13 17:07:12;;;;;;;25.75;8.68;;;;;;;;;;10303681;28;20035;-46
2022/05/13 17:17:32;;;;;;;22.90;8.25;;;;;;;;;;10301802;28;20030;-47
2022/05/13 17:22:37;;;;;;;17.00;7.10;;;;;;;;;;10308742;28;20394;-47
2022/05/13 17:28:00;;;;;;;18.65;7.57;;;;;;;;;;10306168;28;20031;-47
2022/05/13 17:33:01;;;;;;;19.17;7.10;;;;;;;;;;10314619;28;20039;-46
2022/05/13 17:38:05;;;;;;;16.92;6.97;;;;;;;;;;10311470;28;20038;-47
2022/05/13 17:43:11;;;;;;;16.30;7.28;;;;;;;;;;10309395;28;20038;-46
2022/05/13 17:48:18;;;;;;;18.38;6.45;;;;;;;;;;10300295;28;20548;-47
2022/05/13 17:53:25;;;;;;;16.87;8.27;;;;;;;;;;10323563;28;20553;-47
2022/05/13 17:58:26;;;;;;;23.30;6.78;;;;;;;;;;10308817;28;20042;-47
2022/05/13 18:03:28;;;;;;;19.13;7.35;;;;;;;;;;10314116;28;20038;-46
2022/05/13 18:08:28;;;;;;;12.73;6.40;;;;;;;;;;10311183;28;20106;-46
2022/05/13 18:13:29;;;;;;;17.70;7.10;;;;;;;;;;10308954;28;20402;-46
2022/05/13 18:18:32;;;;;;;15.80;6.65;;;;;;;;;;10313687;28;20030;-46
2022/05/13 18:23:36;;;;;;;15.52;6.93;;;;;;;;;;10314922;28;20058;-46
2022/05/13 18:28:38;;;;;;;15.43;6.68;;;;;;;;;;10327213;28;20474;-46
2022/05/13 18:33:39;;;;;;;13.32;6.78;;;;;;;;;;10324514;28;20053;-46
2022/05/13 18:38:41;;;;;;;11.02;6.05;;;;;;;;;;10317652;28;20117;-46
2022/05/13 18:49:05;;;;;;;16.50;5.70;;;;;;;;;;10321949;28;20034;-47
2022/05/13 18:54:05;;;;;;;15.65;7.18;;;;;;;;;;10310150;28;20613;-46
2022/05/13 18:59:08;;;;;;;10.15;6.28;;;;;;;;;;10313157;28;20035;-46
2022/05/13 19:04:09;;;;;;;15.52;6.57;;;;;;;;;;10309546;28;20038;-47
2022/05/13 19:09:10;;;;;;;15.65;7.28;;;;;;;;;;10301211;28;20085;-46
2022/05/13 19:14:10;;;;;;;13.82;7.35;;;;;;;;;;10304914;28;20041;-46
2022/05/13 19:19:13;;;;;;;12.10;7.10;;;;;;;;;;10318304;28;20046;-46
2022/05/13 19:24:13;;;;;;;18.02;6.55;;;;;;;;;;10311583;28;20053;-46
2022/05/13 19:29:14;;;;;;;13.85;6.65;;;;;;;;;;10316240;28;20053;-46
2022/05/13 19:34:15;;;;;;;11.60;6.45;;;;;;;;;;10311957;28;20486;-46
2022/05/13 19:39:15;;;;;;;14.10;6.78;;;;;;;;;;10317910;28;20042;-46
2022/05/13 19:44:16;;;;;;;12.85;6.05;;;;;;;;;;10297318;28;20026;-46
2022/05/13 19:49:16;;;;;;;16.10;5.32;;;;;;;;;;10306203;28;20081;-46
2022/05/13 19:54:17;;;;;;;16.00;5.45;;;;;;;;;;10308566;28;20410;-46
2022/05/13 19:59:18;;;;;;;21.80;4.65;;;;;;;;;;10317954;28;20057;-46
2022/05/13 20:04:19;;;;;;;13.00;5.03;;;;;;;;;;10307925;28;20104;-46
2022/05/13 20:14:39;;;;;;;9.35;4.07;;;;;;;;;;10301887;28;20019;-46
2022/05/13 20:24:59;;;;;;;11.80;4.63;;;;;;;;;;10303821;28;20125;-46
2022/05/13 20:30:00;;;;;;;10.48;4.13;;;;;;;;;;10299504;28;20403;-46
2022/05/13 20:35:01;;;;;;;9.77;3.90;;;;;;;;;;10296769;28;20031;-46
2022/05/13 20:40:03;;;;;;;15.32;4.25;;;;;;;;;;10299516;28;20081;-46
2022/05/13 20:45:05;;;;;;;11.27;3.90;;;;;;;;;;10299377;28;20109;-46
2022/05/13 20:50:08;;;;;;;13.18;4.05;;;;;;;;;;10299333;28;20058;-46
2022/05/13 20:55:09;;;;;;;5.78;3.80;;;;;;;;;;10289141;28;20085;-46
2022/05/13 21:00:12;;;;;;;9.93;3.67;;;;;;;;;;10291979;28;20083;-46
2022/05/13 21:05:16;;;;;;;9.60;3.92;;;;;;;;;;10319414;28;20136;-46
2022/05/13 21:10:25;;;;;;;11.05;4.07;;;;;;;;;;10315231;28;20077;-46
2022/05/13 21:15:26;;;;;;;7.47;3.30;;;;;;;;;;10315532;28;20034;-46
2022/05/13 21:20:27;;;;;;;11.88;4.13;;;;;;;;;;10308546;28;20458;-46
2022/05/13 21:25:28;;;;;;;8.23;3.50;;;;;;;;;;10318970;28;20039;-46
2022/05/13 21:30:29;;;;;;;10.27;3.45;;;;;;;;;;10313096;28;20022;-45
2022/05/13 21:40:49;;;;;;;8.27;3.78;;;;;;;;;;10315826;28;20026;-46
2022/05/13 21:45:50;;;;;;;13.35;3.33;;;;;;;;;;10308592;28;20069;-46
2022/05/13 21:50:50;;;;;;;7.75;4.00;;;;;;;;;;10302983;28;20026;-46
2022/05/13 21:55:51;;;;;;;13.43;4.78;;;;;;;;;;10315717;28;20030;-46
2022/05/13 22:00:51;;;;;;;12.68;4.20;;;;;;;;;;10310708;28;20112;-46
2022/05/13 22:05:52;;;;;;;12.10;3.90;;;;;;;;;;10309797;28;20030;-48
2022/05/13 22:10:53;;;;;;;9.18;3.90;;;;;;;;;;10322216;28;20491;-45
2022/05/13 22:15:55;;;;;;;9.90;4.00;;;;;;;;;;10313543;28;20030;-45
2022/05/13 22:20:55;;;;;;;15.15;4.45;;;;;;;;;;10320618;28;20506;-49
2022/05/13 22:25:56;;;;;;;15.85;4.20;;;;;;;;;;10325087;28;20043;-48
2022/05/13 22:30:59;;;;;;;19.65;4.15;;;;;;;;;;10320778;28;20029;-46
2022/05/13 22:36:00;;;;;;;15.88;4.10;;;;;;;;;;10313389;28;20046;-49
2022/05/13 22:41:01;;;;;;;16.77;3.72;;;;;;;;;;10328661;28;20093;-48
2022/05/13 22:46:03;;;;;;;15.57;4.82;;;;;;;;;;10320511;28;20118;-46
2022/05/13 22:51:04;;;;;;;10.20;3.75;;;;;;;;;;10315976;28;20149;-46
2022/05/13 22:56:07;;;;;;;15.10;4.70;;;;;;;;;;10319579;28;20160;-46
2022/05/13 23:01:08;;;;;;;16.80;3.97;;;;;;;;;;10324357;28;20030;-48
2022/05/13 23:11:29;;;;;;;7.45;3.67;;;;;;;;;;10306630;28;20022;-46
2022/05/13 23:16:31;;;;;;;11.82;3.97;;;;;;;;;;10283622;28;20042;-46
2022/05/13 23:21:32;;;;;;;12.40;4.20;;;;;;;;;;10305015;28;20053;-46
2022/05/13 23:26:33;;;;;;;13.40;3.55;;;;;;;;;;10299442;28;20549;-46
2022/05/13 23:31:34;;;;;;;10.52;3.90;;;;;;;;;;10304491;28;20054;-48
2022/05/13 23:36:37;;;;;;;18.55;4.20;;;;;;;;;;10299663;28;20302;-46
2022/05/13 23:41:38;;;;;;;10.52;3.75;;;;;;;;;;10302362;28;20025;-46
2022/05/13 23:46:39;;;;;;;7.18;3.50;;;;;;;;;;10307036;28;20037;-46
2022/05/13 23:51:39;;;;;;;13.65;3.92;;;;;;;;;;10311132;28;20035;-45
2022/05/13 23:56:40;;;;;;;17.65;3.88;;;;;;;;;;10321666;28;20041;-48
